Time;durP1;ratioP1;P1;durP2;ratioP2;P2;SDS_P1;SDS_P2;PMS_P1;PMS_P2;Temp;Humidity;BMP_temperature;BMP_pressure;BME280_temperature;BME280_humidity;BME280_pressure;Samples;Min_cycle;Max_cycle;Signal;HPM_P1;HPM_P2
2021/10/18 00:00:41;;;;;;;;;;;12.70;99.90;;;;;;5015804;28;19913;-78
2021/10/18 00:03:07;;;;;;;;;;;12.60;99.90;;;;;;5002848;28;19960;-78
2021/10/18 00:05:32;;;;;;;;;;;12.60;99.90;;;;;;5031477;28;19914;-78
2021/10/18 00:07:58;;;;;;;;;;;12.60;99.90;;;;;;5034894;28;19944;-78
2021/10/18 00:10:23;;;;;;;;;;;12.60;99.90;;;;;;5013377;28;19913;-78
2021/10/18 00:12:49;;;;;;;;;;;12.60;99.90;;;;;;4997354;28;19956;-78
2021/10/18 00:15:16;;;;;;;;;;;12.60;99.90;;;;;;5017015;28;20004;-78
2021/10/18 00:17:42;;;;;;;;;;;12.60;99.90;;;;;;5015756;28;19914;-79
2021/10/18 00:20:08;;;;;;;;;;;12.50;99.90;;;;;;5034478;28;19933;-79
2021/10/18 00:22:34;;;;;;;;;;;12.50;99.90;;;;;;5036592;28;19924;-78
2021/10/18 00:24:59;;;;;;;;;;;12.50;99.90;;;;;;5021378;28;19932;-77
2021/10/18 00:27:25;;;;;;;;;;;12.60;99.90;;;;;;5033546;28;19928;-78
2021/10/18 00:29:50;;;;;;;;;;;12.60;99.90;;;;;;5035226;28;19909;-78
2021/10/18 00:32:16;;;;;;;;;;;12.60;99.90;;;;;;5035862;28;19945;-79
2021/10/18 00:34:41;;;;;;;;;;;12.60;99.90;;;;;;5016667;28;19932;-78
2021/10/18 00:37:07;;;;;;;;;;;12.60;99.90;;;;;;5036575;28;19959;-78
2021/10/18 00:39:32;;;;;;;;;;;12.60;99.90;;;;;;5036255;28;19913;-78
2021/10/18 00:41:58;;;;;;;;;;;12.60;99.90;;;;;;5019399;28;19906;-77
2021/10/18 00:44:24;;;;;;;;;;;12.60;99.90;;;;;;5007658;28;19921;-76
2021/10/18 00:46:49;;;;;;;;;;;12.60;99.90;;;;;;5001104;28;19920;-76
2021/10/18 00:49:15;;;;;;;;;;;12.60;99.90;;;;;;4999637;28;19917;-76
2021/10/18 00:51:40;;;;;;;;;;;12.60;99.90;;;;;;4999919;28;19964;-77
2021/10/18 00:54:06;;;;;;;;;;;12.60;99.90;;;;;;5027566;28;19909;-78
2021/10/18 00:56:32;;;;;;;;;;;12.60;99.90;;;;;;5040321;28;19917;-78
2021/10/18 00:58:59;;;;;;;;;;;12.60;99.90;;;;;;5036596;28;19932;-78
2021/10/18 01:01:25;;;;;;;;;;;12.60;99.90;;;;;;5036002;28;20052;-78
2021/10/18 01:03:50;;;;;;;;;;;12.50;99.90;;;;;;5022296;28;19943;-78
2021/10/18 01:06:16;;;;;;;;;;;12.50;99.90;;;;;;5023357;28;19916;-78
2021/10/18 01:08:42;;;;;;;;;;;12.50;99.90;;;;;;5040670;28;19917;-79
2021/10/18 01:11:09;;;;;;;;;;;12.50;99.90;;;;;;5037384;28;20506;-78
2021/10/18 01:13:36;;;;;;;;;;;12.50;99.90;;;;;;5005599;28;20362;-78
2021/10/18 01:16:02;;;;;;;;;;;12.50;99.90;;;;;;5023927;28;19901;-78
2021/10/18 01:18:28;;;;;;;;;;;12.50;99.90;;;;;;5040218;28;19909;-78
2021/10/18 01:20:53;;;;;;;;;;;12.50;99.90;;;;;;5022850;28;19917;-77
2021/10/18 01:23:19;;;;;;;;;;;12.50;99.90;;;;;;5019452;28;19924;-77
2021/10/18 01:25:44;;;;;;;;;;;12.40;99.90;;;;;;5037107;28;19901;-77
2021/10/18 01:28:10;;;;;;;;;;;12.40;99.90;;;;;;5040940;28;19917;-78
2021/10/18 01:30:36;;;;;;;;;;;12.40;99.90;;;;;;5024063;28;19910;-79
2021/10/18 01:33:01;;;;;;;;;;;12.40;99.90;;;;;;5040843;28;19988;-78
2021/10/18 01:35:27;;;;;;;;;;;12.40;99.90;;;;;;5033598;28;19967;-78
2021/10/18 01:37:52;;;;;;;;;;;12.30;99.90;;;;;;5023826;28;19921;-78
2021/10/18 01:40:20;;;;;;;;;;;12.30;99.90;;;;;;5022105;28;19941;-77
2021/10/18 01:42:46;;;;;;;;;;;12.30;99.90;;;;;;5040024;28;19913;-77
2021/10/18 01:45:12;;;;;;;;;;;12.30;99.90;;;;;;5039227;28;19928;-77
2021/10/18 01:47:38;;;;;;;;;;;12.30;99.90;;;;;;5018247;28;19902;-79
2021/10/18 01:50:08;;;;;;;;;;;12.30;99.90;;;;;;5035631;28;19918;-77
2021/10/18 01:52:34;;;;;;;;;;;12.20;99.90;;;;;;5007030;28;19917;-74
2021/10/18 01:54:59;;;;;;;;;;;12.20;99.90;;;;;;5011152;28;19914;-77
2021/10/18 01:57:25;;;;;;;;;;;12.10;99.90;;;;;;5005604;28;19913;-76
2021/10/18 01:59:50;;;;;;;;;;;12.20;99.90;;;;;;5003675;28;19917;-77
2021/10/18 02:02:16;;;;;;;;;;;12.00;99.90;;;;;;5004165;28;19918;-78
2021/10/18 02:04:41;;;;;;;;;;;12.00;99.90;;;;;;5004897;28;19914;-77
2021/10/18 02:07:06;;;;;;;;;;;12.00;99.90;;;;;;5019991;28;19914;-75
2021/10/18 02:09:32;;;;;;;;;;;12.00;99.90;;;;;;5003544;28;19914;-75
2021/10/18 02:11:58;;;;;;;;;;;11.90;99.90;;;;;;5020103;28;19921;-77
2021/10/18 02:14:23;;;;;;;;;;;11.90;99.90;;;;;;5001173;28;20362;-77
2021/10/18 02:16:49;;;;;;;;;;;11.90;99.90;;;;;;5002365;28;19965;-77
2021/10/18 02:19:14;;;;;;;;;;;11.80;99.90;;;;;;5013194;28;20386;-76
2021/10/18 02:21:40;;;;;;;;;;;11.90;99.90;;;;;;5002748;28;20004;-76
2021/10/18 02:24:05;;;;;;;;;;;11.80;99.90;;;;;;5019233;28;20325;-76
2021/10/18 02:26:31;;;;;;;;;;;11.80;99.90;;;;;;5018399;28;19914;-77
2021/10/18 02:28:56;;;;;;;;;;;11.70;99.90;;;;;;4998123;28;19913;-76
2021/10/18 02:31:22;;;;;;;;;;;11.70;99.90;;;;;;5015769;28;19921;-78
2021/10/18 02:33:47;;;;;;;;;;;11.70;99.90;;;;;;4999845;28;19984;-75
2021/10/18 02:36:13;;;;;;;;;;;11.60;99.90;;;;;;5017901;28;20326;-75
2021/10/18 02:38:39;;;;;;;;;;;11.60;99.90;;;;;;4998310;28;19976;-76
2021/10/18 02:41:05;;;;;;;;;;;11.50;99.90;;;;;;5016228;28;19920;-78
2021/10/18 02:43:31;;;;;;;;;;;11.50;99.90;;;;;;4998805;28;19914;-78
2021/10/18 02:45:56;;;;;;;;;;;11.50;99.90;;;;;;4998131;28;20388;-78
2021/10/18 02:48:22;;;;;;;;;;;11.40;99.90;;;;;;5015254;28;19992;-78
2021/10/18 02:50:47;;;;;;;;;;;11.40;99.90;;;;;;5016583;28;19913;-78
2021/10/18 02:53:13;;;;;;;;;;;11.40;99.90;;;;;;5017075;28;19920;-79
2021/10/18 02:55:39;;;;;;;;;;;11.30;99.90;;;;;;5001062;28;20408;-78
2021/10/18 02:58:04;;;;;;;;;;;11.20;99.90;;;;;;5012927;28;19960;-79
2021/10/18 03:00:30;;;;;;;;;;;11.20;99.90;;;;;;5008083;28;19968;-79
2021/10/18 03:02:56;;;;;;;;;;;11.20;99.90;;;;;;4999511;28;19918;-78
2021/10/18 03:05:22;;;;;;;;;;;11.20;99.90;;;;;;4998124;28;19968;-78
2021/10/18 03:07:51;;;;;;;;;;;11.10;99.90;;;;;;5014106;28;20405;-76
2021/10/18 03:10:17;;;;;;;;;;;11.10;99.90;;;;;;4996961;28;20404;-75
2021/10/18 03:12:43;;;;;;;;;;;11.00;99.90;;;;;;4996432;28;19927;-75
2021/10/18 03:15:09;;;;;;;;;;;11.00;99.90;;;;;;5015651;28;20012;-77
2021/10/18 03:17:34;;;;;;;;;;;11.00;99.90;;;;;;5018276;28;20016;-76
2021/10/18 03:20:00;;;;;;;;;;;11.00;99.90;;;;;;5020395;28;19924;-77
2021/10/18 03:22:25;;;;;;;;;;;10.90;99.90;;;;;;5018045;28;19925;-78
2021/10/18 03:24:51;;;;;;;;;;;10.90;99.90;;;;;;5000196;28;19913;-78
2021/10/18 03:27:16;;;;;;;;;;;10.90;99.90;;;;;;5017715;28;20396;-78
2021/10/18 03:29:42;;;;;;;;;;;10.90;99.90;;;;;;5004530;28;19920;-77
2021/10/18 03:32:07;;;;;;;;;;;10.80;99.90;;;;;;5023244;28;19957;-78
2021/10/18 03:34:36;;;;;;;;;;;10.80;99.90;;;;;;5005210;28;19921;-77
2021/10/18 03:37:02;;;;;;;;;;;10.80;99.90;;;;;;5020954;28;20032;-77
2021/10/18 03:39:28;;;;;;;;;;;10.80;99.90;;;;;;5001150;28;20008;-76
2021/10/18 03:41:53;;;;;;;;;;;10.70;99.90;;;;;;5018770;28;19917;-74
2021/10/18 03:44:19;;;;;;;;;;;10.70;99.90;;;;;;5001540;28;19916;-76
2021/10/18 03:46:44;;;;;;;;;;;10.60;99.90;;;;;;5003963;28;19914;-76
2021/10/18 03:49:10;;;;;;;;;;;10.60;99.90;;;;;;4999171;28;19914;-76
2021/10/18 03:51:35;;;;;;;;;;;10.60;99.90;;;;;;5018724;28;19921;-77
2021/10/18 03:54:01;;;;;;;;;;;10.60;99.90;;;;;;5017634;28;19917;-77
2021/10/18 03:56:26;;;;;;;;;;;10.50;99.90;;;;;;4998378;28;19909;-77
2021/10/18 03:58:52;;;;;;;;;;;10.50;99.90;;;;;;5018656;28;19924;-76
2021/10/18 04:01:17;;;;;;;;;;;10.50;99.90;;;;;;5000129;28;19913;-76
2021/10/18 04:03:43;;;;;;;;;;;10.50;99.90;;;;;;4999260;28;19909;-78
2021/10/18 04:06:08;;;;;;;;;;;10.50;99.90;;;;;;4993816;28;19957;-75
2021/10/18 04:08:36;;;;;;;;;;;10.50;99.90;;;;;;4996937;28;19916;-75
2021/10/18 04:11:02;;;;;;;;;;;10.50;99.90;;;;;;4995540;28;19925;-76
2021/10/18 04:13:27;;;;;;;;;;;10.50;99.90;;;;;;4996573;28;19939;-74
2021/10/18 04:15:53;;;;;;;;;;;10.50;99.90;;;;;;5013874;28;19952;-76
2021/10/18 04:18:19;;;;;;;;;;;10.40;99.90;;;;;;4995910;28;20000;-76
2021/10/18 04:20:45;;;;;;;;;;;10.40;99.90;;;;;;4995902;28;19914;-74
2021/10/18 04:23:10;;;;;;;;;;;10.40;99.90;;;;;;4995359;28;19980;-74
2021/10/18 04:25:36;;;;;;;;;;;10.40;99.90;;;;;;4996410;28;20006;-74
2021/10/18 04:28:01;;;;;;;;;;;10.40;99.90;;;;;;5013719;28;19913;-76
2021/10/18 04:30:26;;;;;;;;;;;10.30;99.90;;;;;;5013341;28;19936;-76
2021/10/18 04:32:52;;;;;;;;;;;10.30;99.90;;;;;;5010861;28;19913;-76
2021/10/18 04:35:18;;;;;;;;;;;10.40;99.90;;;;;;5014802;28;19913;-76
2021/10/18 04:37:43;;;;;;;;;;;10.30;99.90;;;;;;4994682;28;19922;-76
2021/10/18 04:40:09;;;;;;;;;;;10.30;99.90;;;;;;5014089;28;19921;-76
2021/10/18 04:42:34;;;;;;;;;;;10.30;99.90;;;;;;5012053;28;20223;-78
2021/10/18 04:45:00;;;;;;;;;;;10.30;99.90;;;;;;4996741;28;20012;-77
2021/10/18 04:47:25;;;;;;;;;;;10.30;99.90;;;;;;5010590;28;19945;-75
2021/10/18 04:49:51;;;;;;;;;;;10.30;99.90;;;;;;4996413;28;20000;-75
2021/10/18 04:52:16;;;;;;;;;;;10.30;99.90;;;;;;5014237;28;19961;-75
2021/10/18 04:54:42;;;;;;;;;;;10.30;99.90;;;;;;5013580;28;19921;-74
2021/10/18 04:57:07;;;;;;;;;;;10.30;99.90;;;;;;5013677;28;20409;-75
2021/10/18 04:59:33;;;;;;;;;;;10.30;99.90;;;;;;4995734;28;20381;-76
2021/10/18 05:01:58;;;;;;;;;;;10.20;99.90;;;;;;5013062;28;19967;-76
2021/10/18 05:04:24;;;;;;;;;;;10.20;99.90;;;;;;5013723;28;19920;-77
2021/10/18 05:06:49;;;;;;;;;;;10.20;99.90;;;;;;5013012;28;19922;-78
2021/10/18 05:09:15;;;;;;;;;;;10.20;99.90;;;;;;5013545;28;19979;-77
2021/10/18 05:11:40;;;;;;;;;;;10.20;99.90;;;;;;5002522;28;19922;-78
2021/10/18 05:14:06;;;;;;;;;;;10.20;99.90;;;;;;4997804;28;19922;-77
2021/10/18 05:16:32;;;;;;;;;;;10.20;99.90;;;;;;5013566;28;19972;-78
2021/10/18 05:18:57;;;;;;;;;;;10.20;99.90;;;;;;5013658;28;19917;-78
2021/10/18 05:21:23;;;;;;;;;;;10.20;99.90;;;;;;4996182;28;19913;-78
2021/10/18 05:23:48;;;;;;;;;;;10.20;99.90;;;;;;4995395;28;19945;-77
2021/10/18 05:26:14;;;;;;;;;;;10.20;99.90;;;;;;4995747;28;19914;-76
2021/10/18 05:28:39;;;;;;;;;;;10.20;99.90;;;;;;4995386;28;19939;-76
2021/10/18 05:31:05;;;;;;;;;;;10.20;99.90;;;;;;5012546;28;19987;-76
2021/10/18 05:33:31;;;;;;;;;;;10.10;99.90;;;;;;5012481;28;19921;-76
2021/10/18 05:35:56;;;;;;;;;;;10.10;99.90;;;;;;4994790;28;19914;-77
2021/10/18 05:38:22;;;;;;;;;;;10.10;99.90;;;;;;4993716;28;19922;-78
2021/10/18 05:40:48;;;;;;;;;;;10.10;99.90;;;;;;4995244;28;19920;-78
2021/10/18 05:43:14;;;;;;;;;;;10.10;99.90;;;;;;5016210;28;19913;-75
2021/10/18 05:45:40;;;;;;;;;;;10.10;99.90;;;;;;4998901;28;19960;-75
2021/10/18 05:48:05;;;;;;;;;;;10.10;99.90;;;;;;4999080;28;19918;-75
2021/10/18 05:50:33;;;;;;;;;;;10.10;99.90;;;;;;5015911;28;19917;-76
2021/10/18 05:52:59;;;;;;;;;;;10.10;99.90;;;;;;5016170;28;19999;-75
2021/10/18 05:55:25;;;;;;;;;;;10.10;99.90;;;;;;5016270;28;19948;-76
2021/10/18 05:57:58;;;;;;;;;;;10.10;99.90;;;;;;4995187;28;20016;-76
2021/10/18 06:00:24;;;;;;;;;;;10.10;99.90;;;;;;4998518;28;19940;-78
2021/10/18 06:02:49;;;;;;;;;;;10.10;99.90;;;;;;5015816;28;19913;-77
2021/10/18 06:05:16;;;;;;;;;;;10.10;99.90;;;;;;5015506;28;19914;-76
2021/10/18 06:07:41;;;;;;;;;;;10.20;99.90;;;;;;4997718;28;19952;-75
2021/10/18 06:10:07;;;;;;;;;;;10.20;99.90;;;;;;4998290;28;19967;-76
2021/10/18 06:12:33;;;;;;;;;;;10.20;99.90;;;;;;5015821;28;19921;-77
2021/10/18 06:14:59;;;;;;;;;;;10.10;99.90;;;;;;4998440;28;19957;-76
2021/10/18 06:17:24;;;;;;;;;;;10.20;99.90;;;;;;5015294;28;19936;-75
2021/10/18 06:19:50;;;;;;;;;;;10.20;99.90;;;;;;4998116;28;20000;-74
2021/10/18 06:22:15;;;;;;;;;;;10.20;99.90;;;;;;5015186;28;20020;-74
2021/10/18 06:24:41;;;;;;;;;;;10.20;99.90;;;;;;4998182;28;19921;-74
2021/10/18 06:27:07;;;;;;;;;;;10.20;99.90;;;;;;5015189;28;20362;-75
2021/10/18 06:29:32;;;;;;;;;;;10.10;99.90;;;;;;5015394;28;19928;-76
2021/10/18 06:31:58;;;;;;;;;;;10.20;99.90;;;;;;4997552;28;20317;-77
2021/10/18 06:34:24;;;;;;;;;;;10.10;99.90;;;;;;4997296;28;19968;-75
2021/10/18 06:36:49;;;;;;;;;;;10.10;99.90;;;;;;4983042;28;19940;-76
2021/10/18 06:39:16;;;;;;;;;;;10.20;99.90;;;;;;5011924;28;19921;-77
2021/10/18 06:41:42;;;;;;;;;;;10.20;99.90;;;;;;5015425;28;20441;-78
2021/10/18 06:44:07;;;;;;;;;;;10.30;99.90;;;;;;4997738;28;20024;-77
2021/10/18 06:46:33;;;;;;;;;;;10.30;99.90;;;;;;5013630;28;19913;-79
2021/10/18 06:49:00;;;;;;;;;;;10.20;99.90;;;;;;4997743;28;19910;-81
2021/10/18 06:51:32;;;;;;;;;;;10.30;99.90;;;;;;5014141;28;19918;-79
2021/10/18 06:53:57;;;;;;;;;;;10.40;99.90;;;;;;4996983;28;19993;-78
2021/10/18 06:56:23;;;;;;;;;;;10.40;99.90;;;;;;5013047;28;19972;-77
2021/10/18 06:58:48;;;;;;;;;;;10.40;99.90;;;;;;5013341;28;19937;-77
2021/10/18 07:01:14;;;;;;;;;;;10.40;99.90;;;;;;4996853;28;19920;-77
2021/10/18 07:03:39;;;;;;;;;;;10.40;99.90;;;;;;4994888;28;20289;-78
2021/10/18 07:06:10;;;;;;;;;;;10.40;99.90;;;;;;5014666;28;19920;-77
2021/10/18 07:08:36;;;;;;;;;;;10.50;99.90;;;;;;5014557;28;19910;-77
2021/10/18 07:11:01;;;;;;;;;;;10.50;99.90;;;;;;4996309;28;19931;-77
2021/10/18 07:13:27;;;;;;;;;;;10.60;99.90;;;;;;4997423;28;19944;-78
2021/10/18 07:15:52;;;;;;;;;;;10.60;99.90;;;;;;4996207;28;19910;-78
2021/10/18 07:18:18;;;;;;;;;;;10.60;99.90;;;;;;4996314;28;19983;-79
2021/10/18 07:20:43;;;;;;;;;;;10.70;99.90;;;;;;5014340;28;19909;-75
2021/10/18 07:23:12;;;;;;;;;;;10.70;99.90;;;;;;5014723;28;19945;-77
2021/10/18 07:25:41;;;;;;;;;;;10.80;99.90;;;;;;5014471;28;19992;-75
2021/10/18 07:28:07;;;;;;;;;;;10.80;99.90;;;;;;4997187;28;19913;-77
2021/10/18 07:30:34;;;;;;;;;;;10.80;99.90;;;;;;4996469;28;19956;-75
2021/10/18 07:32:59;;;;;;;;;;;10.90;99.90;;;;;;4996575;28;20068;-73
2021/10/18 07:35:30;;;;;;;;;;;10.90;99.90;;;;;;4996392;28;19952;-76
2021/10/18 07:37:56;;;;;;;;;;;11.00;99.90;;;;;;5014872;28;19917;-76
2021/10/18 07:40:25;;;;;;;;;;;11.10;99.90;;;;;;4995515;28;19925;-76
2021/10/18 07:42:51;;;;;;;;;;;11.10;99.90;;;;;;4996327;28;20324;-77
2021/10/18 07:45:16;;;;;;;;;;;11.20;99.90;;;;;;5013139;28;19913;-76
2021/10/18 07:47:43;;;;;;;;;;;11.20;99.90;;;;;;4996013;28;19916;-75
2021/10/18 07:50:10;;;;;;;;;;;11.30;99.90;;;;;;4995381;28;19922;-75
2021/10/18 07:52:36;;;;;;;;;;;11.40;99.90;;;;;;4994842;28;20028;-77
2021/10/18 07:55:04;;;;;;;;;;;11.40;99.90;;;;;;4995915;28;19957;-76
2021/10/18 07:57:29;;;;;;;;;;;11.50;99.90;;;;;;5013579;28;19909;-76
2021/10/18 07:59:55;;;;;;;;;;;11.50;99.90;;;;;;5010306;28;20017;-74
2021/10/18 08:02:21;;;;;;;;;;;11.60;99.90;;;;;;5013659;28;19909;-76
2021/10/18 08:04:46;;;;;;;;;;;11.70;99.90;;;;;;5012834;28;19917;-75
2021/10/18 08:07:12;;;;;;;;;;;11.80;99.90;;;;;;5012358;28;19913;-77
2021/10/18 08:09:37;;;;;;;;;;;11.90;99.90;;;;;;5013466;28;20358;-75
2021/10/18 08:12:03;;;;;;;;;;;11.90;99.90;;;;;;4996212;28;19921;-76
2021/10/18 08:14:28;;;;;;;;;;;12.00;99.90;;;;;;4996072;28;20254;-76
2021/10/18 08:16:54;;;;;;;;;;;12.00;99.90;;;;;;4995211;28;19921;-75
2021/10/18 08:19:19;;;;;;;;;;;12.10;99.90;;;;;;5012785;28;19918;-75
2021/10/18 08:21:45;;;;;;;;;;;12.20;99.90;;;;;;4995908;28;19921;-76
2021/10/18 08:24:10;;;;;;;;;;;12.20;99.90;;;;;;4995738;28;19916;-77
2021/10/18 08:26:36;;;;;;;;;;;12.30;99.90;;;;;;4995961;28;19913;-79
2021/10/18 08:29:02;;;;;;;;;;;12.30;99.90;;;;;;4995905;28;19921;-80
2021/10/18 08:31:27;;;;;;;;;;;12.40;99.90;;;;;;5013738;28;19910;-77
2021/10/18 08:33:53;;;;;;;;;;;12.50;99.90;;;;;;5013102;28;20389;-77
2021/10/18 08:36:18;;;;;;;;;;;12.50;99.90;;;;;;5001774;28;19964;-78
2021/10/18 08:39:56;;;;;;;;;;;12.60;99.90;;;;;;5011695;28;20372;-77
2021/10/18 08:41:36;;;;;;;;;;;12.60;99.90;;;;;;5013115;28;19920;-76
2021/10/18 08:44:17;;;;;;;;;;;12.70;99.90;;;;;;5012710;28;19968;-76
2021/10/18 08:46:52;;;;;;;;;;;12.70;99.90;;;;;;4995769;28;19917;-77
2021/10/18 08:49:18;;;;;;;;;;;12.80;99.90;;;;;;4995279;28;19921;-76
2021/10/18 08:51:44;;;;;;;;;;;12.80;99.90;;;;;;5013552;28;20263;-76
2021/10/18 08:54:09;;;;;;;;;;;12.80;99.90;;;;;;4995234;28;19921;-76
2021/10/18 08:56:36;;;;;;;;;;;12.70;99.90;;;;;;4995007;28;19924;-77
2021/10/18 08:59:02;;;;;;;;;;;12.60;99.90;;;;;;4995649;28;19917;-76
2021/10/18 09:01:45;;;;;;;;;;;12.60;99.90;;;;;;4995581;28;19972;-76
2021/10/18 09:04:11;;;;;;;;;;;12.60;99.90;;;;;;5013195;28;20316;-76
2021/10/18 09:06:43;;;;;;;;;;;12.70;99.90;;;;;;5013404;28;20362;-74
2021/10/18 09:09:08;;;;;;;;;;;12.80;99.90;;;;;;4995851;28;19964;-75
2021/10/18 09:11:34;;;;;;;;;;;12.90;99.90;;;;;;4994550;28;19921;-75
2021/10/18 09:14:00;;;;;;;;;;;12.90;99.90;;;;;;4995788;28;19914;-75
2021/10/18 09:16:30;;;;;;;;;;;13.00;99.90;;;;;;4997336;28;19940;-75
2021/10/18 09:19:09;;;;;;;;;;;13.10;99.90;;;;;;5016716;28;20004;-74
2021/10/18 09:21:39;;;;;;;;;;;13.00;99.90;;;;;;4998896;28;19913;-76
2021/10/18 09:24:05;;;;;;;;;;;13.00;99.90;;;;;;5016665;28;19920;-75
2021/10/18 09:26:32;;;;;;;;;;;12.90;99.90;;;;;;5016828;28;20382;-75
2021/10/18 09:29:08;;;;;;;;;;;12.90;99.90;;;;;;5016701;28;19965;-77
2021/10/18 09:31:33;;;;;;;;;;;12.90;99.90;;;;;;4998945;28;19918;-76
2021/10/18 09:34:03;;;;;;;;;;;12.80;99.90;;;;;;4998911;28;20004;-79
2021/10/18 09:36:30;;;;;;;;;;;12.80;99.90;;;;;;4987868;28;20008;-74
2021/10/18 09:39:14;;;;;;;;;;;12.80;99.90;;;;;;5016610;28;19924;-76
2021/10/18 09:41:44;;;;;;;;;;;12.90;99.90;;;;;;4998524;28;19921;-75
2021/10/18 09:44:28;;;;;;;;;;;13.00;99.90;;;;;;5016594;28;19913;-76
2021/10/18 09:47:04;;;;;;;;;;;13.10;99.90;;;;;;5016671;28;19956;-75
2021/10/18 10:53:08;;;;;;;;;;;14.20;99.90;;;;;;5011816;28;19940;-76
2021/10/18 10:55:34;;;;;;;;;;;14.30;99.90;;;;;;5015382;28;20025;-74
2021/10/18 10:58:02;;;;;;;;;;;14.40;99.90;;;;;;5014905;28;19913;-75
2021/10/18 11:00:32;;;;;;;;;;;14.40;99.90;;;;;;5014203;28;20413;-74
2021/10/18 11:03:38;;;;;;;;;;;14.50;99.90;;;;;;5014257;28;20303;-77
2021/10/18 11:06:14;;;;;;;;;;;14.60;99.90;;;;;;4933941;29;19915;-76
2021/10/18 11:08:41;;;;;;;;;;;14.70;99.90;;;;;;4916559;29;20363;-75
2021/10/18 11:11:07;;;;;;;;;;;14.70;99.90;;;;;;4960993;28;19972;-75
2021/10/18 11:13:40;;;;;;;;;;;14.80;99.90;;;;;;5014541;28;19917;-75
2021/10/18 11:16:06;;;;;;;;;;;14.90;99.90;;;;;;5014537;28;19967;-74
2021/10/18 11:18:32;;;;;;;;;;;14.90;99.90;;;;;;5004359;28;20329;-75
2021/10/18 11:21:09;;;;;;;;;;;15.00;99.90;;;;;;5011976;28;19967;-75
2021/10/18 11:23:51;;;;;;;;;;;15.10;99.90;;;;;;5013929;28;19921;-75
2021/10/18 11:26:17;;;;;;;;;;;15.20;99.90;;;;;;4989151;28;19914;-76
2021/10/18 11:28:43;;;;;;;;;;;15.10;99.90;;;;;;5014007;28;20286;-77
2021/10/18 11:31:09;;;;;;;;;;;15.10;99.90;;;;;;5009377;28;19917;-75
2021/10/18 11:33:35;;;;;;;;;;;15.10;99.90;;;;;;5012886;28;19917;-76
2021/10/18 11:36:13;;;;;;;;;;;15.10;99.90;;;;;;4996209;28;20289;-79
2021/10/18 11:38:38;;;;;;;;;;;15.20;99.90;;;;;;5010953;28;19918;-76
2021/10/18 11:41:04;;;;;;;;;;;15.20;99.90;;;;;;4994888;28;19914;-75
2021/10/18 11:43:33;;;;;;;;;;;15.20;99.90;;;;;;5013279;28;19914;-75
2021/10/18 11:45:59;;;;;;;;;;;15.20;99.90;;;;;;5013546;28;19917;-75
2021/10/18 11:48:29;;;;;;;;;;;15.20;99.90;;;;;;4994581;28;19940;-76
2021/10/18 11:50:58;;;;;;;;;;;15.20;99.90;;;;;;5010801;28;19914;-75
2021/10/18 11:53:25;;;;;;;;;;;15.10;99.90;;;;;;5013820;28;19955;-73
2021/10/18 11:55:54;;;;;;;;;;;15.00;99.90;;;;;;5013417;28;19913;-73
2021/10/18 11:58:24;;;;;;;;;;;15.10;99.90;;;;;;4995296;28;19913;-75
2021/10/18 12:00:59;;;;;;;;;;;15.10;99.90;;;;;;4997592;28;19914;-74
2021/10/18 12:03:24;;;;;;;;;;;15.10;99.90;;;;;;4996197;28;19913;-74
2021/10/18 12:05:51;;;;;;;;;;;15.10;99.90;;;;;;5011276;28;19913;-74
2021/10/18 12:08:18;;;;;;;;;;;15.10;99.90;;;;;;4992376;28;19929;-73
2021/10/18 12:10:45;;;;;;;;;;;15.10;99.90;;;;;;5007249;28;20052;-74
2021/10/18 12:13:17;;;;;;;;;;;15.10;99.90;;;;;;4993684;28;19921;-74
2021/10/18 12:15:50;;;;;;;;;;;15.10;99.90;;;;;;4994388;28;19913;-74
2021/10/18 12:18:17;;;;;;;;;;;15.20;99.90;;;;;;4994640;28;20031;-75
2021/10/18 12:20:44;;;;;;;;;;;15.30;99.90;;;;;;4995472;28;19924;-74
2021/10/18 12:23:23;;;;;;;;;;;15.40;99.90;;;;;;5009615;28;20212;-77
2021/10/18 12:25:55;;;;;;;;;;;15.40;99.90;;;;;;5008345;28;20392;-75
2021/10/18 12:28:28;;;;;;;;;;;15.40;99.90;;;;;;4986088;28;20273;-74
2021/10/18 12:30:54;;;;;;;;;;;15.50;99.90;;;;;;5006041;28;19921;-74
2021/10/18 12:33:20;;;;;;;;;;;15.70;99.90;;;;;;5006870;28;20009;-73
2021/10/18 12:35:55;;;;;;;;;;;15.80;99.90;;;;;;4980608;28;20369;-73
2021/10/18 12:38:24;;;;;;;;;;;15.90;99.90;;;;;;4987362;28;19920;-76
2021/10/18 12:40:49;;;;;;;;;;;15.90;99.90;;;;;;5006361;28;20000;-73
2021/10/18 12:43:27;;;;;;;;;;;16.00;99.90;;;;;;5006231;28;20064;-74
2021/10/18 12:45:53;;;;;;;;;;;16.00;99.90;;;;;;4986884;28;19921;-74
2021/10/18 12:48:24;;;;;;;;;;;15.90;99.90;;;;;;5004361;28;19924;-73
2021/10/18 12:50:50;;;;;;;;;;;15.80;99.90;;;;;;5009613;28;20329;-76
2021/10/18 12:53:30;;;;;;;;;;;15.80;99.90;;;;;;5011345;28;19922;-76
2021/10/18 12:55:57;;;;;;;;;;;15.80;99.90;;;;;;4991908;28;19913;-74
2021/10/18 12:58:22;;;;;;;;;;;15.70;99.90;;;;;;4992658;28;19983;-74
2021/10/18 13:00:48;;;;;;;;;;;15.60;99.90;;;;;;4992814;28;19914;-73
2021/10/18 13:03:13;;;;;;;;;;;15.60;99.90;;;;;;5009980;28;19956;-74
2021/10/18 13:05:45;;;;;;;;;;;15.50;99.90;;;;;;4992606;28;20286;-76
2021/10/18 13:08:12;;;;;;;;;;;15.50;99.90;;;;;;4991734;28;19932;-74
2021/10/18 13:10:38;;;;;;;;;;;15.50;99.90;;;;;;4988659;28;19932;-75
2021/10/18 13:13:06;;;;;;;;;;;15.60;99.90;;;;;;4991906;28;20440;-74
2021/10/18 13:15:31;;;;;;;;;;;15.70;99.90;;;;;;5009365;28;19944;-75
2021/10/18 13:17:57;;;;;;;;;;;15.80;99.90;;;;;;5009677;28;20354;-75
2021/10/18 13:20:23;;;;;;;;;;;15.80;99.90;;;;;;5011636;28;20301;-74
2021/10/18 13:22:49;;;;;;;;;;;15.80;99.90;;;;;;5012177;28;20350;-75
2021/10/18 13:25:15;;;;;;;;;;;15.80;99.90;;;;;;5014601;28;20483;-74
2021/10/18 13:27:41;;;;;;;;;;;15.80;99.90;;;;;;5014513;28;20048;-75
2021/10/18 13:30:08;;;;;;;;;;;15.80;99.90;;;;;;4996465;28;19913;-74
2021/10/18 13:32:35;;;;;;;;;;;15.80;99.90;;;;;;4997728;28;20432;-75
2021/10/18 13:35:00;;;;;;;;;;;15.70;99.90;;;;;;5010728;28;21262;-74
2021/10/18 13:37:26;;;;;;;;;;;15.60;99.90;;;;;;5010426;28;20008;-75
2021/10/18 13:39:51;;;;;;;;;;;15.60;99.90;;;;;;5010176;28;19918;-76
2021/10/18 13:42:17;;;;;;;;;;;15.80;99.90;;;;;;5004833;28;19959;-74
2021/10/18 13:44:43;;;;;;;;;;;16.00;99.90;;;;;;4997868;28;19936;-74
2021/10/18 13:47:08;;;;;;;;;;;16.00;99.90;;;;;;5014986;28;20374;-73
2021/10/18 13:49:34;;;;;;;;;;;16.00;99.90;;;;;;5013603;28;19943;-73
2021/10/18 13:52:00;;;;;;;;;;;15.90;99.90;;;;;;4994737;28;19913;-72
2021/10/18 13:54:26;;;;;;;;;;;15.80;99.90;;;;;;5010071;28;20341;-75
2021/10/18 13:56:51;;;;;;;;;;;15.80;99.90;;;;;;5008922;28;20377;-75
2021/10/18 13:59:17;;;;;;;;;;;15.70;99.90;;;;;;4990102;28;20304;-75
2021/10/18 14:01:47;;;;;;;;;;;15.70;99.90;;;;;;4990390;28;19924;-76
2021/10/18 14:04:14;;;;;;;;;;;15.70;99.90;;;;;;5009559;28;19944;-74
2021/10/18 14:06:41;;;;;;;;;;;15.70;99.90;;;;;;5010449;28;19914;-75
2021/10/18 14:09:06;;;;;;;;;;;15.70;99.90;;;;;;5007825;28;20399;-75
2021/10/18 14:11:32;;;;;;;;;;;15.80;99.90;;;;;;4990612;28;20092;-74
2021/10/18 14:13:58;;;;;;;;;;;15.80;99.90;;;;;;4991377;28;19925;-76
2021/10/18 14:16:23;;;;;;;;;;;15.90;99.90;;;;;;4991589;28;19940;-75
2021/10/18 14:18:49;;;;;;;;;;;15.80;99.90;;;;;;4990337;28;19964;-74
2021/10/18 14:21:14;;;;;;;;;;;15.80;99.90;;;;;;5010471;28;20383;-74
2021/10/18 14:23:40;;;;;;;;;;;15.80;99.90;;;;;;5010066;28;19913;-73
2021/10/18 14:26:06;;;;;;;;;;;15.70;99.90;;;;;;5010909;28;20008;-74
2021/10/18 14:28:31;;;;;;;;;;;15.80;99.90;;;;;;5008676;28;19913;-74
2021/10/18 14:30:57;;;;;;;;;;;15.80;99.90;;;;;;5009681;28;20440;-77
2021/10/18 14:33:22;;;;;;;;;;;15.70;99.90;;;;;;5009144;28;19913;-76
2021/10/18 14:35:48;;;;;;;;;;;15.80;99.90;;;;;;5013787;28;19996;-75
2021/10/18 14:38:13;;;;;;;;;;;15.80;99.90;;;;;;4998104;28;19975;-73
2021/10/18 14:40:39;;;;;;;;;;;15.80;99.90;;;;;;5015182;28;19913;-74
2021/10/18 14:43:05;;;;;;;;;;;15.90;99.90;;;;;;4994210;28;20032;-75
2021/10/18 14:45:31;;;;;;;;;;;15.80;99.90;;;;;;5009253;28;19921;-75
2021/10/18 14:47:56;;;;;;;;;;;15.90;99.90;;;;;;5008294;28;20055;-74
2021/10/18 14:50:22;;;;;;;;;;;15.90;99.90;;;;;;5007695;28;20059;-74
2021/10/18 14:52:47;;;;;;;;;;;15.90;99.90;;;;;;5007380;28;19940;-73
2021/10/18 14:55:15;;;;;;;;;;;16.00;99.90;;;;;;4987814;28;20259;-74
2021/10/18 14:57:41;;;;;;;;;;;16.10;99.90;;;;;;5007256;28;19914;-74
2021/10/18 15:00:07;;;;;;;;;;;16.20;99.90;;;;;;4988265;28;19948;-74
2021/10/18 15:02:33;;;;;;;;;;;16.20;99.90;;;;;;4985225;28;19921;-73
2021/10/18 15:04:59;;;;;;;;;;;16.10;99.90;;;;;;5008552;28;19956;-77
2021/10/18 15:07:24;;;;;;;;;;;16.00;99.90;;;;;;4989961;28;19960;-75
2021/10/18 15:09:50;;;;;;;;;;;15.90;99.90;;;;;;5006793;28;19932;-74
2021/10/18 15:12:17;;;;;;;;;;;16.00;99.90;;;;;;5005256;28;19925;-75
2021/10/18 15:14:43;;;;;;;;;;;15.90;99.90;;;;;;5006998;28;20277;-75
2021/10/18 15:17:08;;;;;;;;;;;15.90;99.90;;;;;;4990567;28;19921;-75